Terminal Aerodrome Forecast
Issued by NWS North Platte, NE

Home | Current Version | Previous Version | Text Only | Print | Product List | Glossary On
Versions: 1 2 3 4 5 6 7 8 9 10 11 12 13 14 15 16 17 18
000
FTUS43 KLBF 300500
TAFVTN
TAF
KVTN 300520Z 3006/3106 VRB04KT P6SM SCT250
     FM301800 21011G17KT P6SM FEW070 BKN250
     FM310000 24005KT P6SM FEW050 BKN200=

USA.gov is the U.S. government's official web portal to all federal, state and local government web resources and services.